Time;durP1;ratioP1;P1;durP2;ratioP2;P2;SDS_P1;SDS_P2;PMS_P1;PMS_P2;Temp;Humidity;BMP_temperature;BMP_pressure;BME280_temperature;BME280_humidity;BME280_pressure;Samples;Min_cycle;Max_cycle;Signal;HPM_P1;HPM_P2
2023/12/18 00:01:00;;;;;;;30.42;19.52;;;8.00;99.90;;;;;;7372051;19;20871;-61
2023/12/18 00:03:29;;;;;;;35.28;20.00;;;8.00;99.90;;;;;;7364956;19;20033;-66
2023/12/18 00:05:55;;;;;;;30.45;20.45;;;8.00;99.90;;;;;;7371114;19;20470;-66
2023/12/18 00:08:22;;;;;;;30.02;19.55;;;8.00;99.90;;;;;;7368112;19;20026;-67
2023/12/18 00:10:48;;;;;;;31.52;19.38;;;8.00;99.90;;;;;;7366220;19;20018;-66
2023/12/18 00:13:17;;;;;;;29.67;19.85;;;8.00;99.90;;;;;;7368906;19;20374;-67
2023/12/18 00:15:43;;;;;;;33.78;20.10;;;8.00;99.90;;;;;;7371373;19;20015;-67
2023/12/18 00:18:12;;;;;;;31.77;19.42;;;8.00;99.90;;;;;;7369731;19;20054;-67
2023/12/18 00:20:39;;;;;;;36.33;20.45;;;8.00;99.90;;;;;;7364766;19;20102;-67
2023/12/18 00:23:05;;;;;;;36.00;20.92;;;8.00;99.90;;;;;;7367061;19;20768;-67
2023/12/18 00:25:31;;;;;;;33.10;20.63;;;8.00;99.90;;;;;;7369608;19;20027;-67
2023/12/18 00:27:58;;;;;;;33.28;20.27;;;8.00;99.90;;;;;;7367912;19;20018;-62
2023/12/18 00:30:24;;;;;;;34.28;19.88;;;8.00;99.90;;;;;;7370997;19;20018;-62
2023/12/18 00:32:50;;;;;;;29.67;20.13;;;8.10;99.90;;;;;;7367808;19;20022;-63
2023/12/18 00:35:16;;;;;;;29.00;18.55;;;8.00;99.90;;;;;;7371229;19;20067;-62
2023/12/18 00:37:43;;;;;;;37.40;20.52;;;8.00;99.90;;;;;;7372275;19;20626;-62
2023/12/18 00:40:10;;;;;;;30.27;19.95;;;8.00;99.90;;;;;;7365913;19;20086;-62
2023/12/18 00:42:36;;;;;;;35.05;19.38;;;8.10;99.90;;;;;;7368237;19;20603;-62
2023/12/18 00:45:23;;;;;;;34.03;18.85;;;8.10;99.90;;;;;;7370887;19;20026;-62
2023/12/18 00:47:49;;;;;;;33.55;20.17;;;8.10;99.90;;;;;;7369770;19;20814;-62
2023/12/18 00:50:15;;;;;;;31.25;20.17;;;8.10;99.90;;;;;;7369673;19;20014;-62
2023/12/18 00:52:42;;;;;;;33.17;20.65;;;8.10;99.90;;;;;;7371387;19;20505;-62
2023/12/18 00:55:09;;;;;;;35.15;20.85;;;8.10;99.90;;;;;;7371138;19;20096;-62
2023/12/18 00:57:35;;;;;;;33.30;19.05;;;8.20;99.90;;;;;;7367533;19;20025;-62
2023/12/18 01:00:05;;;;;;;32.95;19.90;;;8.10;99.90;;;;;;7365537;19;20018;-62
2023/12/18 01:02:31;;;;;;;30.98;18.00;;;8.20;99.90;;;;;;7366883;19;20023;-67
2023/12/18 01:04:58;;;;;;;31.60;18.75;;;8.20;99.90;;;;;;7367546;19;20018;-67
2023/12/18 01:07:24;;;;;;;34.22;20.50;;;8.20;99.90;;;;;;7368525;19;20050;-67
2023/12/18 01:09:58;;;;;;;33.13;18.45;;;8.20;99.90;;;;;;7364508;19;20022;-67
2023/12/18 01:12:27;;;;;;;32.13;19.10;;;8.20;99.90;;;;;;7369431;19;20019;-67
2023/12/18 01:14:53;;;;;;;28.60;18.52;;;8.20;99.90;;;;;;7362699;19;20746;-67
2023/12/18 01:17:20;;;;;;;30.88;18.50;;;8.30;99.90;;;;;;7366174;19;20824;-67
2023/12/18 01:19:46;;;;;;;33.95;19.30;;;8.20;99.90;;;;;;7371687;19;20023;-68
2023/12/18 01:22:13;;;;;;;29.30;17.63;;;8.20;99.90;;;;;;7376519;19;20557;-67
2023/12/18 01:24:40;;;;;;;32.50;19.65;;;8.30;99.90;;;;;;7378348;19;20461;-67
2023/12/18 01:27:06;;;;;;;30.80;18.58;;;8.30;99.90;;;;;;7375289;19;20492;-67
2023/12/18 01:29:32;;;;;;;30.45;19.13;;;8.30;99.90;;;;;;7374547;19;20026;-66
2023/12/18 01:31:58;;;;;;;29.10;18.08;;;8.30;99.90;;;;;;7371202;19;20351;-67
2023/12/18 01:34:24;;;;;;;34.78;18.95;;;8.30;99.90;;;;;;7369487;19;21294;-67
2023/12/18 01:36:51;;;;;;;25.98;17.70;;;8.20;99.90;;;;;;7373882;19;20022;-67
2023/12/18 01:39:17;;;;;;;31.00;18.65;;;8.30;99.90;;;;;;7377721;19;20029;-67
2023/12/18 01:41:43;;;;;;;31.65;17.63;;;8.30;99.90;;;;;;7377808;19;20118;-62
2023/12/18 01:44:10;;;;;;;28.27;18.73;;;8.30;99.90;;;;;;7375047;19;20018;-62
2023/12/18 01:46:37;;;;;;;27.83;16.80;;;8.30;99.90;;;;;;7374825;19;20129;-62
2023/12/18 01:49:04;;;;;;;34.67;17.80;;;8.30;99.90;;;;;;7373229;19;20019;-62
2023/12/18 01:51:30;;;;;;;31.67;17.67;;;8.30;99.90;;;;;;7373127;19;20022;-62
2023/12/18 01:53:58;;;;;;;30.48;19.35;;;8.30;99.90;;;;;;7375883;19;20307;-69
2023/12/18 01:56:28;;;;;;;33.05;18.73;;;8.30;99.90;;;;;;7377763;19;20026;-67
2023/12/18 01:58:55;;;;;;;27.95;18.63;;;8.30;99.90;;;;;;7375516;19;20022;-67
2023/12/18 02:01:22;;;;;;;35.67;16.98;;;8.30;99.90;;;;;;7373435;19;20014;-68
2023/12/18 02:03:50;;;;;;;31.30;19.13;;;8.40;99.90;;;;;;7374365;19;20081;-67
2023/12/18 02:06:18;;;;;;;31.27;18.77;;;8.40;99.90;;;;;;7373335;19;20018;-67
2023/12/18 02:08:45;;;;;;;32.20;18.60;;;8.40;99.90;;;;;;7378213;19;20102;-67
2023/12/18 02:11:15;;;;;;;31.02;17.90;;;8.30;99.90;;;;;;7369776;19;20023;-67
2023/12/18 02:13:44;;;;;;;28.55;18.58;;;8.30;99.90;;;;;;7375166;19;20082;-67
2023/12/18 02:16:10;;;;;;;31.65;19.73;;;8.40;99.90;;;;;;7371761;19;20026;-67
2023/12/18 02:18:47;;;;;;;29.80;17.75;;;8.40;99.90;;;;;;7371257;19;20387;-67
2023/12/18 02:21:21;;;;;;;27.10;16.92;;;8.40;99.90;;;;;;7368314;19;20630;-67
2023/12/18 02:23:48;;;;;;;35.92;18.67;;;8.40;99.90;;;;;;7374305;19;20022;-67
2023/12/18 02:26:16;;;;;;;30.58;18.15;;;8.40;99.90;;;;;;7371818;19;20041;-67
2023/12/18 02:28:44;;;;;;;34.72;17.70;;;8.40;99.90;;;;;;7374791;19;20094;-67
2023/12/18 02:31:14;;;;;;;27.92;17.83;;;8.40;99.90;;;;;;7371486;19;20134;-62
2023/12/18 02:33:41;;;;;;;26.08;16.77;;;8.40;99.90;;;;;;7370653;19;20021;-62
2023/12/18 02:36:08;;;;;;;31.85;18.90;;;8.50;99.90;;;;;;7372755;19;20022;-62
2023/12/18 02:38:34;;;;;;;28.45;16.80;;;8.50;99.90;;;;;;7372659;19;20378;-62
2023/12/18 02:41:00;;;;;;;28.95;17.05;;;8.50;99.90;;;;;;7375715;19;20015;-61
2023/12/18 02:43:26;;;;;;;30.67;16.95;;;8.50;99.90;;;;;;7366244;19;21032;-62
2023/12/18 02:45:53;;;;;;;26.17;18.73;;;8.50;99.90;;;;;;7375615;19;20014;-62
2023/12/18 02:48:19;;;;;;;29.75;17.52;;;8.60;99.90;;;;;;7370435;19;20019;-62
2023/12/18 02:50:45;;;;;;;27.38;16.92;;;8.50;99.90;;;;;;7374253;19;20025;-62
2023/12/18 02:53:16;;;;;;;25.60;16.77;;;8.50;99.90;;;;;;7372260;19;20799;-62
2023/12/18 02:55:42;;;;;;;31.98;18.13;;;8.60;99.90;;;;;;7370648;19;20043;-62
2023/12/18 02:58:09;;;;;;;31.63;18.27;;;8.60;99.90;;;;;;7368265;19;20026;-62
2023/12/18 03:00:36;;;;;;;30.88;16.98;;;8.50;99.90;;;;;;7372097;19;20026;-61
2023/12/18 03:03:02;;;;;;;28.75;18.08;;;8.50;99.90;;;;;;7369831;19;20022;-62
2023/12/18 03:05:28;;;;;;;37.63;19.05;;;8.50;99.90;;;;;;7370689;19;20051;-62
2023/12/18 03:07:54;;;;;;;29.98;16.92;;;8.50;99.90;;;;;;7373239;19;20022;-62
2023/12/18 03:10:20;;;;;;;31.40;18.17;;;8.50;99.90;;;;;;7367257;19;20033;-61
2023/12/18 03:12:46;;;;;;;24.17;17.48;;;8.50;99.90;;;;;;7377485;19;20010;-62
2023/12/18 03:15:13;;;;;;;33.78;18.55;;;8.50;99.90;;;;;;7366116;19;20605;-62
2023/12/18 03:17:39;;;;;;;28.15;17.02;;;8.50;99.90;;;;;;7375503;19;20552;-62
2023/12/18 03:20:06;;;;;;;24.90;16.20;;;8.50;99.90;;;;;;7370421;19;20013;-62
2023/12/18 03:22:33;;;;;;;24.92;17.13;;;8.50;99.90;;;;;;7368878;19;20090;-62
2023/12/18 03:24:59;;;;;;;29.00;18.25;;;8.50;99.90;;;;;;7369844;19;20047;-62
2023/12/18 03:27:25;;;;;;;27.40;18.08;;;8.60;99.90;;;;;;7369787;19;20049;-62
2023/12/18 03:29:53;;;;;;;23.65;16.67;;;8.50;99.90;;;;;;7363676;19;20386;-67
2023/12/18 03:32:19;;;;;;;25.95;17.88;;;8.50;99.90;;;;;;7368260;19;20083;-68
2023/12/18 03:34:45;;;;;;;33.25;18.95;;;8.60;99.90;;;;;;7368382;19;20018;-67
2023/12/18 03:37:12;;;;;;;29.20;16.80;;;8.50;99.90;;;;;;7371498;19;20020;-62
2023/12/18 03:39:38;;;;;;;30.67;18.70;;;8.50;99.90;;;;;;7372426;19;20035;-61
2023/12/18 03:42:04;;;;;;;31.63;19.05;;;8.50;99.90;;;;;;7368732;19;20018;-62
2023/12/18 03:44:31;;;;;;;32.75;20.95;;;8.40;99.90;;;;;;7366461;19;20018;-67
2023/12/18 03:46:57;;;;;;;30.02;21.05;;;8.40;99.90;;;;;;7369382;19;20021;-67
2023/12/18 03:49:23;;;;;;;31.70;20.50;;;8.30;99.90;;;;;;7370447;19;20022;-67
2023/12/18 03:51:50;;;;;;;30.92;21.08;;;8.30;99.90;;;;;;7372388;19;20030;-67
2023/12/18 03:54:16;;;;;;;31.88;20.70;;;8.20;99.90;;;;;;7369975;19;20022;-67
2023/12/18 03:56:42;;;;;;;34.97;21.00;;;8.20;99.90;;;;;;7372287;19;20029;-62
2023/12/18 03:59:09;;;;;;;30.85;20.60;;;8.20;99.90;;;;;;7375458;19;20039;-61
2023/12/18 04:01:36;;;;;;;38.15;21.40;;;8.20;99.90;;;;;;7373059;19;20031;-61
2023/12/18 04:04:03;;;;;;;29.63;20.60;;;8.20;99.90;;;;;;7372638;19;20375;-61
2023/12/18 04:06:29;;;;;;;35.05;22.10;;;8.20;99.90;;;;;;7372888;19;20082;-61
2023/12/18 04:08:55;;;;;;;36.78;23.10;;;8.10;99.90;;;;;;7375174;19;20050;-62
2023/12/18 04:11:22;;;;;;;31.05;22.13;;;8.10;99.90;;;;;;7371841;19;20018;-63
2023/12/18 04:13:49;;;;;;;36.00;23.63;;;8.10;99.90;;;;;;7371510;19;20355;-61
2023/12/18 04:16:16;;;;;;;34.60;23.17;;;8.10;99.90;;;;;;7368364;19;20019;-62
2023/12/18 04:18:42;;;;;;;32.28;22.63;;;8.10;99.90;;;;;;7370738;19;20082;-61
2023/12/18 04:21:08;;;;;;;29.80;22.00;;;8.10;99.90;;;;;;7367872;19;20111;-61
2023/12/18 04:23:35;;;;;;;31.73;22.33;;;8.10;99.90;;;;;;7370498;19;20019;-67
2023/12/18 04:26:01;;;;;;;34.50;23.27;;;8.10;99.90;;;;;;7369490;19;20014;-67
2023/12/18 04:28:27;;;;;;;30.27;21.73;;;8.10;99.90;;;;;;7370641;19;20019;-67
2023/12/18 04:30:53;;;;;;;32.05;22.02;;;8.10;99.90;;;;;;7369061;19;20025;-67
2023/12/18 04:33:20;;;;;;;32.00;21.25;;;8.10;99.90;;;;;;7371684;19;20107;-67
2023/12/18 04:35:46;;;;;;;32.25;21.70;;;8.10;99.90;;;;;;7369595;19;20090;-62
2023/12/18 04:38:12;;;;;;;34.42;22.27;;;8.00;99.90;;;;;;7369561;19;20029;-61
2023/12/18 04:40:38;;;;;;;31.23;21.90;;;8.10;99.90;;;;;;7372995;19;20022;-61
2023/12/18 04:43:04;;;;;;;37.60;22.25;;;8.10;99.90;;;;;;7368584;19;20015;-61
2023/12/18 04:45:31;;;;;;;27.83;21.77;;;8.10;99.90;;;;;;7368715;19;20022;-62
2023/12/18 04:47:57;;;;;;;29.90;21.10;;;8.00;99.90;;;;;;7370926;19;20469;-61
2023/12/18 04:50:23;;;;;;;28.15;21.27;;;8.10;99.90;;;;;;7367660;19;20671;-62
2023/12/18 04:52:49;;;;;;;38.85;21.10;;;8.10;99.90;;;;;;7371672;19;20038;-61
2023/12/18 04:55:16;;;;;;;31.60;20.50;;;8.10;99.90;;;;;;7369826;19;20019;-62
2023/12/18 04:57:43;;;;;;;27.88;21.05;;;8.10;99.90;;;;;;7373004;19;20102;-61
2023/12/18 05:00:29;;;;;;;30.00;21.33;;;8.10;99.90;;;;;;7371335;19;20018;-62
2023/12/18 05:02:56;;;;;;;26.77;20.45;;;8.10;99.90;;;;;;7376123;19;20018;-61
2023/12/18 05:05:22;;;;;;;30.70;20.75;;;8.10;99.90;;;;;;7370928;19;20430;-62
2023/12/18 05:07:48;;;;;;;31.05;19.40;;;8.10;99.90;;;;;;7376351;19;20697;-63
2023/12/18 05:10:15;;;;;;;34.72;21.20;;;8.10;99.90;;;;;;7372051;19;20031;-62
2023/12/18 05:12:41;;;;;;;29.25;19.85;;;8.10;99.90;;;;;;7374452;19;20022;-62
2023/12/18 05:15:08;;;;;;;31.70;20.75;;;8.20;99.90;;;;;;7374517;19;20706;-62
2023/12/18 05:17:34;;;;;;;29.42;19.38;;;8.10;99.90;;;;;;7373672;19;20021;-62
2023/12/18 05:20:01;;;;;;;29.38;19.63;;;8.20;99.90;;;;;;7377290;19;20026;-67
2023/12/18 05:22:27;;;;;;;36.30;20.05;;;8.10;99.90;;;;;;7374821;19;20759;-68
2023/12/18 05:24:53;;;;;;;32.67;20.60;;;8.10;99.90;;;;;;7373706;19;20018;-68
2023/12/18 05:27:20;;;;;;;28.83;19.88;;;8.10;99.90;;;;;;7377457;19;20015;-68
2023/12/18 05:29:46;;;;;;;27.08;19.75;;;8.10;99.90;;;;;;7375703;19;20099;-67
2023/12/18 05:32:12;;;;;;;34.45;21.17;;;8.20;99.90;;;;;;7375307;19;20019;-67
2023/12/18 05:34:58;;;;;;;30.13;19.90;;;8.10;99.90;;;;;;7373326;19;20058;-68
2023/12/18 05:37:24;;;;;;;32.10;20.55;;;8.10;99.90;;;;;;7373234;19;20056;-68
2023/12/18 05:39:51;;;;;;;29.33;20.42;;;8.10;99.90;;;;;;7376428;19;20045;-68
2023/12/18 05:42:19;;;;;;;28.85;19.50;;;8.10;99.90;;;;;;7378639;19;20023;-69
2023/12/18 05:44:45;;;;;;;32.10;20.48;;;8.10;99.90;;;;;;7376636;19;20014;-69
2023/12/18 05:47:12;;;;;;;35.25;20.15;;;8.10;99.90;;;;;;7374312;19;20074;-68
2023/12/18 05:49:38;;;;;;;30.45;20.40;;;8.10;99.90;;;;;;7378306;19;20022;-68
2023/12/18 05:52:04;;;;;;;32.95;20.67;;;8.10;99.90;;;;;;7378174;19;20018;-70
2023/12/18 05:54:30;;;;;;;33.17;21.23;;;8.10;99.90;;;;;;7379146;19;20065;-68
2023/12/18 05:56:57;;;;;;;27.70;20.60;;;8.10;99.90;;;;;;7370822;19;20366;-68
2023/12/18 05:59:23;;;;;;;36.85;22.20;;;8.10;99.90;;;;;;7378367;19;20122;-68
2023/12/18 06:01:50;;;;;;;36.53;20.90;;;8.10;99.90;;;;;;7374884;19;20029;-69
2023/12/18 06:04:16;;;;;;;28.73;21.23;;;8.10;99.90;;;;;;7377323;19;20073;-70
2023/12/18 06:06:43;;;;;;;26.52;19.95;;;8.10;99.90;;;;;;7373114;19;20773;-69
2023/12/18 06:09:09;;;;;;;29.90;20.17;;;8.10;99.90;;;;;;7375986;19;20026;-69
2023/12/18 06:11:35;;;;;;;29.30;19.98;;;8.20;99.90;;;;;;7373376;19;20018;-69
2023/12/18 06:14:01;;;;;;;30.88;20.35;;;8.10;99.90;;;;;;7376244;19;20029;-69
2023/12/18 06:16:28;;;;;;;30.38;19.83;;;8.10;99.90;;;;;;7371958;19;20709;-68
2023/12/18 06:18:54;;;;;;;28.70;19.75;;;8.10;99.90;;;;;;7371822;19;20059;-69
2023/12/18 06:21:20;;;;;;;34.90;20.70;;;8.10;99.90;;;;;;7376688;19;20026;-68
2023/12/18 06:23:46;;;;;;;33.03;21.65;;;8.10;99.90;;;;;;7375332;19;20393;-67
2023/12/18 06:26:13;;;;;;;30.00;20.35;;;8.10;99.90;;;;;;7372692;19;20739;-66
2023/12/18 06:28:39;;;;;;;33.30;20.60;;;8.10;99.90;;;;;;7376485;19;20025;-67
2023/12/18 06:31:05;;;;;;;27.85;20.38;;;8.10;99.90;;;;;;7372433;19;20936;-68
2023/12/18 06:33:31;;;;;;;30.92;20.65;;;8.10;99.90;;;;;;7372532;19;20045;-67
2023/12/18 06:35:58;;;;;;;29.45;21.17;;;8.10;99.90;;;;;;7373434;19;20014;-66
2023/12/18 06:38:24;;;;;;;28.27;20.00;;;8.10;99.90;;;;;;7375138;19;20030;-68
2023/12/18 06:40:50;;;;;;;35.30;21.52;;;8.10;99.90;;;;;;7377438;19;20018;-67
2023/12/18 06:43:16;;;;;;;28.25;20.05;;;8.10;99.90;;;;;;7374654;19;20074;-67
2023/12/18 06:45:42;;;;;;;29.33;20.67;;;8.10;99.90;;;;;;7377065;19;20033;-67
2023/12/18 06:48:09;;;;;;;31.67;21.15;;;8.10;99.90;;;;;;7376904;19;20093;-68
2023/12/18 06:50:35;;;;;;;27.85;19.67;;;8.10;99.90;;;;;;7375760;19;20022;-67
2023/12/18 06:53:02;;;;;;;40.00;19.90;;;8.10;99.90;;;;;;7374753;19;20023;-67
2023/12/18 06:55:28;;;;;;;30.63;20.35;;;8.10;99.90;;;;;;7375336;19;20022;-67
2023/12/18 06:57:55;;;;;;;28.38;20.33;;;8.20;99.90;;;;;;7374589;19;20038;-62
2023/12/18 07:00:21;;;;;;;32.80;20.55;;;8.20;99.90;;;;;;7373816;19;20025;-62
2023/12/18 07:02:48;;;;;;;31.20;21.50;;;8.20;99.90;;;;;;7375382;19;20087;-63
2023/12/18 07:05:16;;;;;;;32.17;21.25;;;8.20;99.90;;;;;;7374020;19;20010;-63
2023/12/18 07:07:42;;;;;;;32.22;20.92;;;8.20;99.90;;;;;;7373459;19;20022;-61
2023/12/18 07:10:08;;;;;;;33.10;21.58;;;8.20;99.90;;;;;;7376199;19;20600;-62
2023/12/18 07:12:35;;;;;;;28.25;21.35;;;8.20;99.90;;;;;;7375729;19;20633;-61
2023/12/18 07:15:01;;;;;;;34.13;21.05;;;8.20;99.90;;;;;;7374473;19;20026;-62
2023/12/18 07:17:28;;;;;;;33.33;22.92;;;8.20;99.90;;;;;;7370477;19;20021;-61
2023/12/18 07:19:54;;;;;;;33.33;21.55;;;8.20;99.90;;;;;;7376225;19;20017;-61
2023/12/18 07:22:20;;;;;;;35.33;23.02;;;8.10;99.90;;;;;;7375247;19;20441;-62
2023/12/18 07:24:47;;;;;;;35.90;24.38;;;8.10;99.90;;;;;;7375494;19;20234;-61
2023/12/18 07:27:13;;;;;;;35.72;22.50;;;8.10;99.90;;;;;;7373148;19;20058;-61
2023/12/18 07:29:39;;;;;;;34.33;24.45;;;8.10;99.90;;;;;;7375385;19;20027;-61
2023/12/18 07:32:06;;;;;;;33.60;23.83;;;8.10;99.90;;;;;;7374910;19;20014;-62
2023/12/18 07:34:32;;;;;;;28.80;22.60;;;8.10;99.90;;;;;;7376233;19;20025;-61
2023/12/18 07:36:58;;;;;;;33.25;24.67;;;8.10;99.90;;;;;;7373017;19;20367;-61
2023/12/18 07:39:24;;;;;;;32.10;23.42;;;8.10;99.90;;;;;;7373675;19;20014;-66
2023/12/18 07:41:50;;;;;;;32.00;24.30;;;8.10;99.90;;;;;;7377007;19;20017;-66
2023/12/18 07:44:17;;;;;;;38.53;24.52;;;8.10;99.90;;;;;;7373177;19;20026;-66
2023/12/18 07:46:43;;;;;;;35.20;24.60;;;8.10;99.90;;;;;;7373920;19;20014;-67
2023/12/18 07:49:09;;;;;;;32.85;23.17;;;8.10;99.90;;;;;;7372825;19;20053;-66
2023/12/18 07:51:37;;;;;;;32.33;24.30;;;8.10;99.90;;;;;;7375766;19;20015;-62
2023/12/18 07:54:04;;;;;;;36.78;25.20;;;8.10;99.90;;;;;;7374184;19;20596;-60
2023/12/18 07:56:30;;;;;;;47.97;32.55;;;8.10;99.90;;;;;;7374783;19;20011;-60
2023/12/18 07:58:56;;;;;;;33.22;26.45;;;8.20;99.90;;;;;;7372344;19;20018;-61
2023/12/18 08:01:43;;;;;;;38.70;26.27;;;8.20;99.90;;;;;;7374846;19;20031;-61
2023/12/18 08:04:10;;;;;;;36.97;25.88;;;8.20;99.90;;;;;;7375241;19;20059;-61
2023/12/18 08:06:37;;;;;;;33.53;25.13;;;8.20;99.90;;;;;;7372291;19;20612;-62
2023/12/18 08:09:03;;;;;;;38.25;25.80;;;8.20;99.90;;;;;;7375920;19;20011;-63
2023/12/18 08:11:30;;;;;;;35.92;26.63;;;8.20;99.90;;;;;;7372372;19;20011;-63
2023/12/18 08:13:56;;;;;;;41.95;25.50;;;8.20;99.90;;;;;;7376577;19;20440;-63
2023/12/18 08:16:23;;;;;;;34.35;26.20;;;8.20;99.90;;;;;;7373360;19;20042;-65
2023/12/18 08:18:50;;;;;;;36.78;25.42;;;8.20;99.90;;;;;;7371456;19;20014;-64
2023/12/18 08:21:16;;;;;;;34.78;25.67;;;8.30;99.90;;;;;;7370540;19;20034;-63
2023/12/18 08:23:44;;;;;;;37.65;25.83;;;8.30;99.90;;;;;;7375368;19;20724;-63
2023/12/18 08:26:11;;;;;;;36.65;27.02;;;8.20;99.90;;;;;;7372607;19;20011;-63
2023/12/18 08:28:44;;;;;;;35.90;25.83;;;8.20;99.90;;;;;;7371190;19;20026;-63
2023/12/18 08:31:11;;;;;;;39.40;26.45;;;8.20;99.90;;;;;;7370771;19;20026;-65
2023/12/18 08:33:42;;;;;;;33.05;26.90;;;8.20;99.90;;;;;;7373296;19;20059;-64
2023/12/18 08:36:09;;;;;;;37.35;26.33;;;8.20;99.90;;;;;;7368392;19;20014;-65
2023/12/18 08:38:35;;;;;;;38.80;26.50;;;8.30;99.90;;;;;;7371820;19;20022;-70
2023/12/18 08:41:01;;;;;;;38.55;26.02;;;8.30;99.90;;;;;;7369914;19;20014;-68
2023/12/18 08:43:28;;;;;;;33.95;25.85;;;8.20;99.90;;;;;;7372526;19;20658;-63
2023/12/18 08:45:54;;;;;;;35.55;24.83;;;8.30;99.90;;;;;;7371009;19;20025;-64
2023/12/18 08:48:20;;;;;;;35.75;26.38;;;8.30;99.90;;;;;;7374547;19;20011;-64
2023/12/18 08:50:46;;;;;;;36.92;26.92;;;8.30;99.90;;;;;;7372686;19;20014;-64
2023/12/18 08:53:13;;;;;;;38.88;25.60;;;8.30;99.90;;;;;;7369850;19;20026;-64
2023/12/18 08:55:39;;;;;;;38.53;27.90;;;8.30;99.90;;;;;;7370504;19;20025;-64
2023/12/18 08:58:09;;;;;;;35.67;26.58;;;8.30;99.90;;;;;;7369143;19;20046;-63
2023/12/18 09:00:35;;;;;;;37.97;27.05;;;8.30;99.90;;;;;;7367884;19;20035;-63
2023/12/18 09:03:14;;;;;;;41.80;25.60;;;8.30;99.90;;;;;;7370618;19;20483;-63
2023/12/18 09:05:42;;;;;;;35.63;25.95;;;8.40;99.90;;;;;;7371478;19;20497;-65
2023/12/18 09:08:08;;;;;;;39.17;25.73;;;8.30;99.90;;;;;;7370630;19;20486;-68
2023/12/18 09:10:34;;;;;;;39.70;25.90;;;8.40;99.90;;;;;;7368937;19;20499;-69
2023/12/18 09:13:01;;;;;;;37.10;27.65;;;8.40;99.90;;;;;;7370431;19;20052;-69
2023/12/18 09:15:27;;;;;;;37.67;26.95;;;8.40;99.90;;;;;;7369150;19;21550;-69
2023/12/18 09:17:53;;;;;;;35.03;27.52;;;8.40;99.90;;;;;;7368783;19;20015;-68
2023/12/18 09:20:19;;;;;;;39.22;25.48;;;8.40;99.90;;;;;;7368187;19;20022;-68
2023/12/18 09:22:48;;;;;;;42.45;26.77;;;8.30;99.90;;;;;;7372453;19;20050;-70
2023/12/18 09:25:14;;;;;;;40.78;27.17;;;8.40;99.90;;;;;;7369099;19;20027;-64
2023/12/18 09:27:41;;;;;;;41.20;26.60;;;8.40;99.90;;;;;;7372049;19;20506;-69
2023/12/18 09:30:08;;;;;;;39.53;25.65;;;8.40;99.90;;;;;;7366036;19;20030;-68
2023/12/18 09:32:35;;;;;;;36.05;26.15;;;8.40;99.90;;;;;;7370766;19;20026;-70
2023/12/18 09:35:02;;;;;;;42.35;26.55;;;8.40;99.90;;;;;;7368674;19;20107;-68
2023/12/18 09:37:28;;;;;;;36.28;26.15;;;8.50;99.90;;;;;;7360453;19;20453;-69
2023/12/18 09:39:55;;;;;;;39.03;26.15;;;8.50;99.90;;;;;;7365363;19;20050;-69
2023/12/18 09:42:21;;;;;;;37.13;27.35;;;8.50;99.90;;;;;;7373795;19;20053;-68
2023/12/18 09:44:48;;;;;;;34.83;25.88;;;8.50;99.90;;;;;;7376517;19;20058;-68
2023/12/18 09:47:14;;;;;;;34.05;26.08;;;8.50;99.90;;;;;;7377220;19;20015;-69
2023/12/18 09:49:42;;;;;;;41.15;27.02;;;8.60;99.90;;;;;;7377790;19;20035;-69
2023/12/18 09:52:14;;;;;;;35.75;24.63;;;8.60;99.90;;;;;;7378495;19;20485;-69
2023/12/18 09:54:42;;;;;;;38.50;25.77;;;8.60;99.90;;;;;;7378714;19;20416;-69
2023/12/18 09:57:13;;;;;;;34.00;25.92;;;8.60;99.90;;;;;;7377936;19;20018;-63
2023/12/18 09:59:39;;;;;;;41.20;26.92;;;8.60;99.90;;;;;;7376546;19;20029;-63
2023/12/18 10:02:07;;;;;;;37.83;27.35;;;8.70;99.90;;;;;;7379221;19;20022;-64
2023/12/18 10:04:33;;;;;;;42.10;26.77;;;8.70;99.90;;;;;;7378707;19;20014;-62
2023/12/18 10:07:02;;;;;;;38.63;27.52;;;8.70;99.90;;;;;;7378334;19;20458;-63
2023/12/18 10:09:34;;;;;;;35.45;26.73;;;8.70;99.90;;;;;;7377773;19;20038;-64
2023/12/18 10:12:03;;;;;;;37.75;27.13;;;8.80;99.90;;;;;;7380174;19;20018;-65
2023/12/18 10:14:29;;;;;;;32.33;25.40;;;8.80;99.90;;;;;;7378164;19;20025;-63
2023/12/18 10:16:56;;;;;;;36.00;26.77;;;8.80;99.90;;;;;;7377262;19;20486;-63
2023/12/18 10:19:24;;;;;;;37.55;26.60;;;8.80;99.90;;;;;;7374358;19;20102;-62
2023/12/18 10:21:50;;;;;;;43.75;28.27;;;8.80;99.90;;;;;;7377539;19;20775;-64
2023/12/18 10:24:16;;;;;;;39.25;27.88;;;8.80;99.90;;;;;;7375600;19;20114;-62
2023/12/18 10:26:42;;;;;;;39.00;26.73;;;8.90;99.90;;;;;;7380049;19;20029;-63
2023/12/18 10:29:09;;;;;;;44.38;27.35;;;8.90;99.90;;;;;;7373866;19;20014;-64
2023/12/18 10:31:35;;;;;;;35.90;27.17;;;8.90;99.90;;;;;;7379281;19;20047;-63
2023/12/18 10:34:05;;;;;;;37.88;28.23;;;8.90;99.90;;;;;;7379412;19;20518;-63
2023/12/18 10:36:39;;;;;;;39.80;28.60;;;8.90;99.90;;;;;;7377487;19;20026;-68
2023/12/18 10:39:09;;;;;;;30.38;26.63;;;8.90;99.90;;;;;;7371210;19;20023;-69
2023/12/18 10:41:38;;;;;;;35.88;27.15;;;8.90;99.90;;;;;;7375379;19;20653;-68
2023/12/18 10:44:07;;;;;;;40.38;29.83;;;8.90;99.90;;;;;;7378338;19;20026;-68
2023/12/18 10:46:35;;;;;;;39.88;29.23;;;8.90;99.90;;;;;;7376929;19;20057;-67
2023/12/18 10:49:02;;;;;;;43.50;29.45;;;8.90;99.90;;;;;;7375978;19;20061;-65
2023/12/18 10:51:33;;;;;;;41.45;29.05;;;8.90;99.90;;;;;;7376631;19;20017;-68
2023/12/18 10:54:02;;;;;;;39.28;29.42;;;8.90;99.90;;;;;;7376797;19;20010;-70
2023/12/18 10:56:29;;;;;;;38.80;29.00;;;8.90;99.90;;;;;;7375676;19;20032;-69
2023/12/18 10:58:59;;;;;;;48.83;32.20;;;8.80;99.90;;;;;;7371651;19;20682;-62
2023/12/18 11:01:26;;;;;;;38.15;28.23;;;8.80;99.90;;;;;;7376161;19;20035;-62
2023/12/18 11:03:54;;;;;;;37.00;28.75;;;8.80;99.90;;;;;;7377472;19;20023;-63
2023/12/18 11:06:20;;;;;;;38.92;29.55;;;8.80;99.90;;;;;;7377309;19;20045;-63
2023/12/18 11:08:49;;;;;;;41.03;30.60;;;8.90;99.90;;;;;;7375730;19;20026;-62
2023/12/18 11:11:17;;;;;;;42.67;30.60;;;8.80;99.90;;;;;;7376715;19;20019;-62
2023/12/18 11:13:52;;;;;;;41.00;29.42;;;8.80;99.90;;;;;;7376604;19;20018;-62
2023/12/18 11:16:25;;;;;;;41.78;30.10;;;8.80;99.90;;;;;;7373615;19;20018;-68
2023/12/18 11:19:19;;;;;;;43.15;28.80;;;8.80;99.90;;;;;;7371771;19;20113;-70
2023/12/18 11:21:49;;;;;;;41.78;28.80;;;8.90;99.90;;;;;;7378529;19;20131;-68
2023/12/18 11:24:36;;;;;;;38.70;29.25;;;8.90;99.90;;;;;;7374102;19;20506;-69
2023/12/18 11:27:06;;;;;;;42.88;29.92;;;8.90;99.90;;;;;;7377470;19;20030;-68
2023/12/18 11:29:45;;;;;;;41.97;30.30;;;8.90;99.90;;;;;;7377239;19;20015;-68
2023/12/18 11:32:32;;;;;;;39.78;30.25;;;9.00;99.90;;;;;;7376139;19;20500;-68
2023/12/18 11:34:58;;;;;;;42.38;29.92;;;8.90;99.90;;;;;;7369629;19;20525;-68
2023/12/18 11:37:25;;;;;;;42.00;28.48;;;9.00;99.90;;;;;;7373176;19;20054;-68
2023/12/18 11:39:51;;;;;;;37.08;29.25;;;9.00;99.90;;;;;;7370832;19;20023;-67
2023/12/18 11:42:48;;;;;;;43.40;28.83;;;9.00;99.90;;;;;;7377323;19;20027;-64
2023/12/18 11:45:15;;;;;;;39.03;28.45;;;9.00;99.90;;;;;;7376124;19;20029;-64
2023/12/18 11:47:44;;;;;;;38.70;30.35;;;9.00;99.90;;;;;;7373999;19;20018;-68
2023/12/18 11:50:10;;;;;;;36.53;29.58;;;9.00;99.90;;;;;;7371424;19;20833;-69
2023/12/18 11:52:38;;;;;;;36.90;27.88;;;9.10;99.90;;;;;;7374106;19;20011;-67
2023/12/18 11:55:07;;;;;;;40.55;29.35;;;9.10;99.90;;;;;;7373773;19;20014;-63
2023/12/18 11:57:43;;;;;;;36.30;28.20;;;9.10;99.90;;;;;;7377913;19;20031;-62
2023/12/18 12:00:11;;;;;;;41.13;27.45;;;9.20;99.90;;;;;;7370388;19;20046;-63
2023/12/18 12:02:38;;;;;;;37.22;25.52;;;9.20;99.90;;;;;;7376194;19;20018;-63
2023/12/18 12:05:26;;;;;;;36.40;24.63;;;9.20;99.90;;;;;;7374210;19;20025;-63
2023/12/18 12:07:52;;;;;;;42.42;26.33;;;9.30;99.90;;;;;;7374591;19;20042;-62
2023/12/18 12:10:20;;;;;;;31.60;25.20;;;9.30;99.90;;;;;;7371222;19;20022;-62
2023/12/18 12:12:57;;;;;;;37.63;26.48;;;9.30;99.90;;;;;;7376107;19;20071;-62
2023/12/18 12:15:24;;;;;;;36.95;25.52;;;9.30;99.90;;;;;;7370331;19;20089;-67
2023/12/18 12:17:51;;;;;;;36.05;24.05;;;9.30;99.90;;;;;;7372442;19;20010;-68
2023/12/18 12:20:17;;;;;;;32.35;24.10;;;9.30;99.90;;;;;;7368245;19;20023;-67
2023/12/18 12:22:44;;;;;;;35.53;25.13;;;9.30;99.90;;;;;;7369137;19;20018;-68
2023/12/18 12:25:10;;;;;;;33.13;25.05;;;9.30;99.90;;;;;;7368656;19;20023;-68
2023/12/18 12:27:37;;;;;;;29.80;23.65;;;9.30;99.90;;;;;;7371681;19;20533;-68
2023/12/18 12:30:05;;;;;;;34.42;24.50;;;9.30;99.90;;;;;;7370457;19;20339;-68
2023/12/18 12:32:31;;;;;;;33.70;23.95;;;9.30;99.90;;;;;;7369281;19;20848;-65
2023/12/18 12:34:58;;;;;;;33.88;23.92;;;9.30;99.90;;;;;;7372080;19;20171;-61
2023/12/18 12:37:24;;;;;;;35.33;25.40;;;9.30;99.90;;;;;;7369229;19;20026;-68